Harrah, Washington
Current Conditions -  °F | °C
As of 6:53 AM on Friday 28 Nov 2014 (Local Time) from KYKM Reporting Station
Clear Clear  
Wind Chill: 54°   Ceiling: Unl
Heat Index: 54°   Visibility: 10mi
Dew Point: 43°   Wind: 21mph
Humidity: 66%   Direction: 180°S
Pressure: 29.53"   Gusts: NA
Location:  46.4°N, 120.54°W
Report Text: KYKM 281453Z 18018KT 10SM CLR 12/06 A2953 RMK AO2 PK WND 19027/1354 SLP999 T01220061 56023
Loading
Personal Weather Stations






























Interactive Weather Map New forecast layout! Learn more

10-Day Weather Forecast

Advertisements
Track Severe Weather on mobile